Seiken Maru — JD4216 — position and weather

sailwx.info

Track history (hours):
 
Tides and Currents Weather Stations Pressure Air Temp Water Temp Dewpoint Dewpoint Depression Visibility Wind Speed Wind Dir Waves Ship Positions

Seiken Maru

Last reported at 2017-Nov-19 03:09 UTC. Time now 2017-Nov-22 07:18 UTC.
Position N 34°36' E 135°08'.

Length 70 m.

Type: Cargo ship. MMSI: 431009715.

Date/timePositionNaut miles runAvg speedWind from/ knotsBaromVisibWave heightAir tempDewpointWater temp
2017-Nov-19 03:09N 34°36' E 135°08'210.4
2017-Nov-19 03:00N 34°36' E 135°10'610.9
2017-Nov-19 02:29N 34°38' E 135°16'8 1.9
2017-Nov-18 22:26N 34°39' E 135°25'3 6.5
2017-Nov-18 21:59N 34°37' E 135°23'0 0.7
2017-Nov-18 21:30N 34°37' E 135°22'0 0.0
2017-Nov-18 21:00N 34°37' E 135°22'0 0.0
2017-Nov-18 20:30N 34°37' E 135°22'0 0.0
2017-Nov-18 20:00N 34°37' E 135°22'0 0.0
2017-Nov-18 19:24N 34°37' E 135°22'0 0.0
2017-Nov-18 19:00N 34°37' E 135°22'0 0.1
2017-Nov-18 18:30N 34°37' E 135°22'0 0.1
2017-Nov-18 18:00N 34°37' E 135°22'0 0.1
2017-Nov-18 17:30N 34°37' E 135°22'0 0.0
2017-Nov-18 17:00N 34°37' E 135°22'0 0.0
2017-Nov-18 16:30N 34°37' E 135°22'0 0.0
2017-Nov-18 16:00N 34°37' E 135°22'0 0.1
2017-Nov-18 15:30N 34°37' E 135°22'0 0.1
2017-Nov-18 15:00N 34°37' E 135°22'0 0.0
2017-Nov-18 14:30N 34°37' E 135°22'0 0.0
2017-Nov-18 14:00N 34°37' E 135°22'0 0.0
2017-Nov-18 13:24N 34°37' E 135°22'0 0.0
2017-Nov-18 12:54N 34°37' E 135°22'0 0.1
2017-Nov-18 12:30N 34°37' E 135°22'0 0.0
2017-Nov-18 11:54N 34°37' E 135°22'0 0.0
2017-Nov-18 11:30N 34°37' E 135°22'0 0.0
2017-Nov-18 11:00N 34°37' E 135°22'1 1.0
2017-Nov-18 10:30N 34°37' E 135°22'610.9
2017-Nov-18 09:59N 34°35' E 135°15'712.3
2017-Nov-18 09:24N 34°35' E 135°07'223 5.0
2017-Nov-16 12:44N 35°04' E 139°36'311.2
2017-Nov-16 12:30N 35°05' E 139°39'611.8
2017-Nov-16 11:59N 35°10' E 139°44'14 0.4
2017-Nov-15 02:40N 35°24' E 139°46'211.8
2017-Nov-15 02:30N 35°22' E 139°45'1010.9
2017-Nov-15 01:35N 35°12' E 139°47'211.1
2017-Nov-15 01:23N 35°10' E 139°47'510.8
2017-Nov-15 00:57N 35°05' E 139°45'510.7
2017-Nov-15 00:29N 35°01' E 139°44'27 0.6
2017-Nov-13 01:57N 35°28' E 139°45'5 1.7
2017-Nov-12 23:01N 35°28' E 139°39'0 2.7
2017-Nov-12 22:59N 35°28' E 139°39'3 6.0
2017-Nov-12 22:26N 35°26' E 139°42'2 0.5
2017-Nov-12 17:46N 35°24' E 139°43'710.3
2017-Nov-12 17:06N 35°17' E 139°45'110.9
2017-Nov-12 16:58N 35°16' E 139°46'611.1
2017-Nov-12 16:28N 35°10' E 139°46'611.8
2017-Nov-12 16:00N 35°05' E 139°45'  
Track history (hours):
 
Tides and Currents Weather Stations Pressure Air Temp Water Temp Dewpoint Dewpoint Depression Visibility Wind Speed Wind Dir Waves Ship Positions

Seiken Maru

Last reported at 2017-Nov-19 03:09 UTC. Time now 2017-Nov-22 07:18 UTC.
Position N 34°36' E 135°08'.

Length 70 m.

Type: Cargo ship. MMSI: 431009715.

Date/timePositionNaut miles runAvg speedWind from/ knotsBaromVisibWave heightAir tempDewpointWater temp
2017-Nov-19 03:09N 34°36' E 135°08'210.4
2017-Nov-19 03:00N 34°36' E 135°10'610.9
2017-Nov-19 02:29N 34°38' E 135°16'8 1.9
2017-Nov-18 22:26N 34°39' E 135°25'3 6.5
2017-Nov-18 21:59N 34°37' E 135°23'0 0.7
2017-Nov-18 21:30N 34°37' E 135°22'0 0.0
2017-Nov-18 21:00N 34°37' E 135°22'0 0.0
2017-Nov-18 20:30N 34°37' E 135°22'0 0.0
2017-Nov-18 20:00N 34°37' E 135°22'0 0.0
2017-Nov-18 19:24N 34°37' E 135°22'0 0.0
2017-Nov-18 19:00N 34°37' E 135°22'0 0.1
2017-Nov-18 18:30N 34°37' E 135°22'0 0.1
2017-Nov-18 18:00N 34°37' E 135°22'0 0.1
2017-Nov-18 17:30N 34°37' E 135°22'0 0.0
2017-Nov-18 17:00N 34°37' E 135°22'0 0.0
2017-Nov-18 16:30N 34°37' E 135°22'0 0.0
2017-Nov-18 16:00N 34°37' E 135°22'0 0.1
2017-Nov-18 15:30N 34°37' E 135°22'0 0.1
2017-Nov-18 15:00N 34°37' E 135°22'0 0.0
2017-Nov-18 14:30N 34°37' E 135°22'0 0.0
2017-Nov-18 14:00N 34°37' E 135°22'0 0.0
2017-Nov-18 13:24N 34°37' E 135°22'0 0.0
2017-Nov-18 12:54N 34°37' E 135°22'0 0.1
2017-Nov-18 12:30N 34°37' E 135°22'0 0.0
2017-Nov-18 11:54N 34°37' E 135°22'0 0.0
2017-Nov-18 11:30N 34°37' E 135°22'0 0.0
2017-Nov-18 11:00N 34°37' E 135°22'1 1.0
2017-Nov-18 10:30N 34°37' E 135°22'610.9
2017-Nov-18 09:59N 34°35' E 135°15'712.3
2017-Nov-18 09:24N 34°35' E 135°07'223 5.0
2017-Nov-16 12:44N 35°04' E 139°36'311.2
2017-Nov-16 12:30N 35°05' E 139°39'611.8
2017-Nov-16 11:59N 35°10' E 139°44'14 0.4
2017-Nov-15 02:40N 35°24' E 139°46'211.8
2017-Nov-15 02:30N 35°22' E 139°45'1010.9
2017-Nov-15 01:35N 35°12' E 139°47'211.1
2017-Nov-15 01:23N 35°10' E 139°47'510.8
2017-Nov-15 00:57N 35°05' E 139°45'510.7
2017-Nov-15 00:29N 35°01' E 139°44'27 0.6
2017-Nov-13 01:57N 35°28' E 139°45'5 1.7
2017-Nov-12 23:01N 35°28' E 139°39'0 2.7
2017-Nov-12 22:59N 35°28' E 139°39'3 6.0
2017-Nov-12 22:26N 35°26' E 139°42'2 0.5
2017-Nov-12 17:46N 35°24' E 139°43'710.3
2017-Nov-12 17:06N 35°17' E 139°45'110.9
2017-Nov-12 16:58N 35°16' E 139°46'611.1
2017-Nov-12 16:28N 35°10' E 139°46'611.8
2017-Nov-12 16:00N 35°05' E 139°45'  

Dump ship's entire track history